Kellerton, Iowa
Current Conditions -  °F | °C
As of 3:53 AM on Monday 26 Jan 2015 (Local Time) from KLWD Reporting Station
Overcast Overcast  
Wind Chill: 21°   Ceiling: 2300
Heat Index: 30°   Visibility: 10mi
Dew Point: 27°   Wind: 10mph
Humidity: 88%   Direction: 230°SW
Pressure: 30"   Gusts: NA
Location:  40.71°N, 94.05°W
Report Text: KLWD 260953Z AUTO 23009KT 10SM OVC023 M01/M03 A3000 RMK AO2 SLP170 T10111028
Loading
Personal Weather Stations






























Interactive Weather Map New forecast layout! Learn more

10-Day Weather Forecast

Advertisements
Track Severe Weather on mobile